Airfield :
LOGIN :

Register | Disclaimer

   EN    FR    IT 

 










Legend :    VFR   Marginal VFR   IFR   Intensive IFR   Very Intensive IFR
Visi :
Ceiling :
>= 8 km
>= 3000ft
5 to 8 km
1000 to 3000 ft
1500m to 5 km
500 to 1000 ft
800 to 1500m
200 to 500 ft
< 800m
< 200 ft
Symbols :   Thunderstorms  Fog  Heavy snow  Heavy precipitations  Wind > 20 kt
SIGMETs :     Misc.  Thunderstorms  Icing  Turbulence  Mountain Waves  Volcanic Ashes






- Airport Elevation : 870 ft
- IATA code : ETZ


LFJL - Metz Nancy Lorraine

CURRENT METAR :
  • 172230Z AUTO 28003KT 4500 BR SCT011 OVC031 03/03 Q1037 BECMG 0400 FG VV///

EXPIRED METARs :
  • 172200Z AUTO 26003KT 5000 BR FEW013 OVC029 03/03 Q1037 BECMG 0400 FG VV///
  • 172130Z AUTO 24003KT 4900 BR BKN013 OVC035 03/03 Q1038 BECMG 0400 FG VV///
  • 172100Z AUTO 28004KT 5000 BR FEW007 SCT013 OVC035 03/03 Q1038 BECMG 0400 FG VV///
  • 172030Z AUTO 26004KT 6000 BKN007 OVC033 04/03 Q1037 BECMG 0400 FG VV///
  • 172000Z AUTO 24003KT 6000 SCT007 BKN015 OVC034 03/03 Q1037 BECMG 0400 FG VV///

TAF AMD TAF LFJL
Valid from the 17 at 22:00 until the 18 at 18:00 UTC


172233Z 1722/1818 VRB03KT 6000 FEW010 BKN030
TEMPO 1722/1810 2500 BR OVC003
PROB40
TEMPO 1800/1808 0400 FG VV///
FM181000 08010KT 6000 OVC006
BECMG 1811/1813 BKN013
PROB40
TEMPO 1813/1818 FEW015



MET'MAP, your aeronautical weather chart ! - Copyright ORBIFLY December 2007 - Disclaimer

ORBIFLY MET'MAP TEAM :

Programming & Development : Alexandra Zaïnal
Concept & original design : Baudouin d'Aumeries
Assistance for programming : Marc-Olivier Méhu
Technical & hardware support : Manuel Goepfert

Contact : metmap@orbifly.com




SOURCES & CREDITS :

   NOAA